sensor_id;sensor_type;location;lat;lon;timestamp;P1;durP1;ratioP1;P2;durP2;ratioP2
47431;SDS011;33183;52.290;6.144;2022-10-16T00:02:05;3.80;;;3.00;;
47431;SDS011;33183;52.290;6.144;2022-10-16T00:04:30;4.28;;;3.10;;
47431;SDS011;33183;52.290;6.144;2022-10-16T00:06:56;3.95;;;2.92;;
47431;SDS011;33183;52.290;6.144;2022-10-16T00:09:21;5.05;;;3.20;;
47431;SDS011;33183;52.290;6.144;2022-10-16T00:11:46;4.10;;;2.90;;
47431;SDS011;33183;52.290;6.144;2022-10-16T00:14:13;3.90;;;3.13;;
47431;SDS011;33183;52.290;6.144;2022-10-16T00:16:39;4.40;;;2.88;;
47431;SDS011;33183;52.290;6.144;2022-10-16T00:19:04;4.57;;;3.13;;
47431;SDS011;33183;52.290;6.144;2022-10-16T00:21:30;5.65;;;2.90;;
47431;SDS011;33183;52.290;6.144;2022-10-16T00:23:57;4.93;;;3.55;;
47431;SDS011;33183;52.290;6.144;2022-10-16T00:26:24;4.20;;;2.88;;
47431;SDS011;33183;52.290;6.144;2022-10-16T00:28:50;4.07;;;2.92;;
47431;SDS011;33183;52.290;6.144;2022-10-16T00:31:17;3.55;;;2.50;;
47431;SDS011;33183;52.290;6.144;2022-10-16T00:33:44;4.90;;;3.30;;
47431;SDS011;33183;52.290;6.144;2022-10-16T00:36:11;4.30;;;2.42;;
47431;SDS011;33183;52.290;6.144;2022-10-16T00:38:38;3.53;;;2.47;;
47431;SDS011;33183;52.290;6.144;2022-10-16T00:41:07;4.05;;;2.78;;
47431;SDS011;33183;52.290;6.144;2022-10-16T00:46:09;4.75;;;2.83;;
47431;SDS011;33183;52.290;6.144;2022-10-16T00:48:40;4.53;;;3.00;;
47431;SDS011;33183;52.290;6.144;2022-10-16T00:51:06;4.25;;;2.90;;
47431;SDS011;33183;52.290;6.144;2022-10-16T00:53:32;3.92;;;2.65;;
47431;SDS011;33183;52.290;6.144;2022-10-16T00:55:57;5.00;;;2.90;;
47431;SDS011;33183;52.290;6.144;2022-10-16T00:58:23;5.15;;;2.97;;
47431;SDS011;33183;52.290;6.144;2022-10-16T01:00:48;4.75;;;2.97;;
47431;SDS011;33183;52.290;6.144;2022-10-16T01:06:25;3.65;;;2.65;;
47431;SDS011;33183;52.290;6.144;2022-10-16T01:11:41;4.57;;;2.60;;
47431;SDS011;33183;52.290;6.144;2022-10-16T01:14:22;3.58;;;2.70;;
47431;SDS011;33183;52.290;6.144;2022-10-16T01:21:56;4.25;;;2.60;;
47431;SDS011;33183;52.290;6.144;2022-10-16T01:24:27;4.18;;;3.10;;
47431;SDS011;33183;52.290;6.144;2022-10-16T01:29:30;3.88;;;2.45;;
47431;SDS011;33183;52.290;6.144;2022-10-16T01:32:19;3.63;;;2.78;;
47431;SDS011;33183;52.290;6.144;2022-10-16T01:34:52;4.25;;;2.55;;
47431;SDS011;33183;52.290;6.144;2022-10-16T01:37:22;4.25;;;2.80;;
47431;SDS011;33183;52.290;6.144;2022-10-16T01:39:55;3.28;;;2.30;;
47431;SDS011;33183;52.290;6.144;2022-10-16T01:42:24;3.70;;;2.60;;
47431;SDS011;33183;52.290;6.144;2022-10-16T01:44:54;4.13;;;2.88;;
47431;SDS011;33183;52.290;6.144;2022-10-16T01:47:21;3.10;;;2.10;;
47431;SDS011;33183;52.290;6.144;2022-10-16T01:49:47;4.45;;;2.40;;
47431;SDS011;33183;52.290;6.144;2022-10-16T01:52:15;2.65;;;2.15;;
47431;SDS011;33183;52.290;6.144;2022-10-16T01:54:43;3.17;;;2.42;;
47431;SDS011;33183;52.290;6.144;2022-10-16T01:57:11;3.10;;;2.53;;
47431;SDS011;33183;52.290;6.144;2022-10-16T01:59:40;3.63;;;2.30;;
47431;SDS011;33183;52.290;6.144;2022-10-16T02:02:08;3.45;;;2.38;;
47431;SDS011;33183;52.290;6.144;2022-10-16T02:04:36;2.92;;;2.40;;
47431;SDS011;33183;52.290;6.144;2022-10-16T02:07:04;3.88;;;2.33;;
47431;SDS011;33183;52.290;6.144;2022-10-16T02:09:32;2.97;;;2.08;;
47431;SDS011;33183;52.290;6.144;2022-10-16T02:11:58;4.28;;;2.60;;
47431;SDS011;33183;52.290;6.144;2022-10-16T02:14:24;2.55;;;2.13;;
47431;SDS011;33183;52.290;6.144;2022-10-16T02:16:50;3.63;;;2.38;;
47431;SDS011;33183;52.290;6.144;2022-10-16T02:19:16;2.85;;;2.25;;
47431;SDS011;33183;52.290;6.144;2022-10-16T02:26:51;3.60;;;2.50;;
47431;SDS011;33183;52.290;6.144;2022-10-16T02:29:21;3.60;;;2.90;;
47431;SDS011;33183;52.290;6.144;2022-10-16T02:31:50;3.00;;;2.50;;
47431;SDS011;33183;52.290;6.144;2022-10-16T02:34:18;3.22;;;2.38;;
47431;SDS011;33183;52.290;6.144;2022-10-16T02:36:44;3.40;;;2.17;;
47431;SDS011;33183;52.290;6.144;2022-10-16T02:39:10;3.30;;;2.17;;
47431;SDS011;33183;52.290;6.144;2022-10-16T02:41:36;2.92;;;2.30;;
47431;SDS011;33183;52.290;6.144;2022-10-16T02:44:02;2.85;;;2.10;;
47431;SDS011;33183;52.290;6.144;2022-10-16T02:46:27;2.90;;;1.98;;
47431;SDS011;33183;52.290;6.144;2022-10-16T02:48:52;2.47;;;2.10;;
47431;SDS011;33183;52.290;6.144;2022-10-16T02:51:18;2.75;;;2.00;;
47431;SDS011;33183;52.290;6.144;2022-10-16T02:53:43;2.88;;;1.95;;
47431;SDS011;33183;52.290;6.144;2022-10-16T02:56:08;2.83;;;2.20;;
47431;SDS011;33183;52.290;6.144;2022-10-16T02:58:33;2.95;;;1.98;;
47431;SDS011;33183;52.290;6.144;2022-10-16T03:00:59;2.58;;;2.03;;
47431;SDS011;33183;52.290;6.144;2022-10-16T03:03:24;2.80;;;2.10;;
47431;SDS011;33183;52.290;6.144;2022-10-16T03:05:49;2.63;;;2.10;;
47431;SDS011;33183;52.290;6.144;2022-10-16T03:08:14;3.28;;;2.10;;
47431;SDS011;33183;52.290;6.144;2022-10-16T03:10:40;2.83;;;2.03;;
47431;SDS011;33183;52.290;6.144;2022-10-16T03:13:06;2.88;;;2.22;;
47431;SDS011;33183;52.290;6.144;2022-10-16T03:15:31;2.58;;;1.92;;
47431;SDS011;33183;52.290;6.144;2022-10-16T03:17:57;3.75;;;2.20;;
47431;SDS011;33183;52.290;6.144;2022-10-16T03:20:23;2.58;;;2.00;;
47431;SDS011;33183;52.290;6.144;2022-10-16T03:22:49;2.75;;;1.95;;
47431;SDS011;33183;52.290;6.144;2022-10-16T03:25:14;3.63;;;1.95;;
47431;SDS011;33183;52.290;6.144;2022-10-16T03:27:39;2.42;;;2.00;;
47431;SDS011;33183;52.290;6.144;2022-10-16T03:30:05;2.10;;;1.80;;
47431;SDS011;33183;52.290;6.144;2022-10-16T03:32:30;3.53;;;2.00;;
47431;SDS011;33183;52.290;6.144;2022-10-16T03:34:55;2.72;;;1.75;;
47431;SDS011;33183;52.290;6.144;2022-10-16T03:37:21;2.22;;;1.95;;
47431;SDS011;33183;52.290;6.144;2022-10-16T03:39:47;2.10;;;1.73;;
47431;SDS011;33183;52.290;6.144;2022-10-16T03:42:12;3.25;;;2.10;;
47431;SDS011;33183;52.290;6.144;2022-10-16T03:44:37;2.72;;;2.10;;
47431;SDS011;33183;52.290;6.144;2022-10-16T03:47:03;3.20;;;2.13;;
47431;SDS011;33183;52.290;6.144;2022-10-16T03:49:28;2.50;;;1.80;;
47431;SDS011;33183;52.290;6.144;2022-10-16T03:51:53;2.38;;;2.13;;
47431;SDS011;33183;52.290;6.144;2022-10-16T03:54:18;2.60;;;1.80;;
47431;SDS011;33183;52.290;6.144;2022-10-16T03:56:44;2.60;;;1.65;;
47431;SDS011;33183;52.290;6.144;2022-10-16T03:59:09;2.45;;;1.90;;
47431;SDS011;33183;52.290;6.144;2022-10-16T04:01:34;2.05;;;1.77;;
47431;SDS011;33183;52.290;6.144;2022-10-16T04:03:59;2.42;;;1.98;;
47431;SDS011;33183;52.290;6.144;2022-10-16T04:06:25;2.78;;;1.83;;
47431;SDS011;33183;52.290;6.144;2022-10-16T04:08:50;2.08;;;1.63;;
47431;SDS011;33183;52.290;6.144;2022-10-16T04:11:15;2.38;;;2.00;;
47431;SDS011;33183;52.290;6.144;2022-10-16T04:13:40;2.10;;;1.80;;
47431;SDS011;33183;52.290;6.144;2022-10-16T04:16:06;2.63;;;2.03;;
47431;SDS011;33183;52.290;6.144;2022-10-16T04:18:31;2.25;;;1.73;;
47431;SDS011;33183;52.290;6.144;2022-10-16T04:21:01;2.10;;;1.65;;
47431;SDS011;33183;52.290;6.144;2022-10-16T04:23:27;2.42;;;1.50;;
47431;SDS011;33183;52.290;6.144;2022-10-16T04:25:53;2.50;;;2.00;;
47431;SDS011;33183;52.290;6.144;2022-10-16T04:28:18;3.78;;;2.22;;
47431;SDS011;33183;52.290;6.144;2022-10-16T04:30:43;2.05;;;1.70;;
47431;SDS011;33183;52.290;6.144;2022-10-16T04:33:09;1.90;;;1.70;;
47431;SDS011;33183;52.290;6.144;2022-10-16T04:35:34;2.65;;;2.08;;
47431;SDS011;33183;52.290;6.144;2022-10-16T04:38:00;2.15;;;1.80;;
47431;SDS011;33183;52.290;6.144;2022-10-16T04:40:25;2.88;;;1.70;;
47431;SDS011;33183;52.290;6.144;2022-10-16T04:42:50;2.53;;;1.70;;
47431;SDS011;33183;52.290;6.144;2022-10-16T04:45:16;2.10;;;1.70;;
47431;SDS011;33183;52.290;6.144;2022-10-16T04:47:41;2.20;;;1.80;;
47431;SDS011;33183;52.290;6.144;2022-10-16T04:50:06;3.03;;;2.00;;
47431;SDS011;33183;52.290;6.144;2022-10-16T04:52:32;2.83;;;1.60;;
47431;SDS011;33183;52.290;6.144;2022-10-16T04:54:58;3.15;;;2.00;;
47431;SDS011;33183;52.290;6.144;2022-10-16T04:57:26;3.15;;;1.52;;
47431;SDS011;33183;52.290;6.144;2022-10-16T04:59:51;2.05;;;1.50;;
47431;SDS011;33183;52.290;6.144;2022-10-16T05:02:17;2.67;;;1.75;;
47431;SDS011;33183;52.290;6.144;2022-10-16T05:04:42;2.38;;;1.60;;
47431;SDS011;33183;52.290;6.144;2022-10-16T05:07:07;1.88;;;1.30;;
47431;SDS011;33183;52.290;6.144;2022-10-16T05:09:33;2.40;;;1.65;;
47431;SDS011;33183;52.290;6.144;2022-10-16T05:11:58;3.15;;;1.52;;
47431;SDS011;33183;52.290;6.144;2022-10-16T05:14:23;2.13;;;1.52;;
47431;SDS011;33183;52.290;6.144;2022-10-16T05:16:48;2.08;;;1.50;;
47431;SDS011;33183;52.290;6.144;2022-10-16T05:19:14;2.15;;;1.50;;
47431;SDS011;33183;52.290;6.144;2022-10-16T05:21:39;1.48;;;1.38;;
47431;SDS011;33183;52.290;6.144;2022-10-16T05:24:04;2.35;;;1.52;;
47431;SDS011;33183;52.290;6.144;2022-10-16T05:26:30;2.92;;;1.60;;
47431;SDS011;33183;52.290;6.144;2022-10-16T05:28:55;2.28;;;1.45;;
47431;SDS011;33183;52.290;6.144;2022-10-16T05:31:20;1.98;;;1.48;;
47431;SDS011;33183;52.290;6.144;2022-10-16T05:33:45;2.42;;;1.30;;
47431;SDS011;33183;52.290;6.144;2022-10-16T05:36:11;2.03;;;1.40;;
47431;SDS011;33183;52.290;6.144;2022-10-16T05:38:36;2.30;;;1.63;;
47431;SDS011;33183;52.290;6.144;2022-10-16T05:41:02;3.10;;;1.80;;
47431;SDS011;33183;52.290;6.144;2022-10-16T05:43:28;2.67;;;1.48;;
47431;SDS011;33183;52.290;6.144;2022-10-16T05:45:57;3.08;;;1.60;;
47431;SDS011;33183;52.290;6.144;2022-10-16T05:48:24;5.38;;;1.70;;
47431;SDS011;33183;52.290;6.144;2022-10-16T05:50:57;2.72;;;1.42;;
47431;SDS011;33183;52.290;6.144;2022-10-16T05:53:27;2.17;;;1.70;;
47431;SDS011;33183;52.290;6.144;2022-10-16T05:55:54;1.90;;;1.20;;
47431;SDS011;33183;52.290;6.144;2022-10-16T05:58:19;2.30;;;1.60;;
47431;SDS011;33183;52.290;6.144;2022-10-16T06:00:52;2.03;;;1.50;;
47431;SDS011;33183;52.290;6.144;2022-10-16T06:03:18;1.30;;;1.10;;
47431;SDS011;33183;52.290;6.144;2022-10-16T06:05:43;2.97;;;1.50;;
47431;SDS011;33183;52.290;6.144;2022-10-16T06:08:08;2.90;;;1.60;;
47431;SDS011;33183;52.290;6.144;2022-10-16T06:10:33;2.75;;;1.40;;
47431;SDS011;33183;52.290;6.144;2022-10-16T06:12:59;3.72;;;1.40;;
47431;SDS011;33183;52.290;6.144;2022-10-16T06:15:24;4.30;;;1.83;;
47431;SDS011;33183;52.290;6.144;2022-10-16T06:17:49;2.92;;;1.35;;
47431;SDS011;33183;52.290;6.144;2022-10-16T06:20:14;5.05;;;1.60;;
47431;SDS011;33183;52.290;6.144;2022-10-16T06:22:40;2.33;;;1.30;;
47431;SDS011;33183;52.290;6.144;2022-10-16T06:25:05;2.10;;;1.50;;
47431;SDS011;33183;52.290;6.144;2022-10-16T06:27:30;7.97;;;1.80;;
47431;SDS011;33183;52.290;6.144;2022-10-16T06:29:56;3.83;;;1.48;;
47431;SDS011;33183;52.290;6.144;2022-10-16T06:32:22;4.63;;;2.00;;
47431;SDS011;33183;52.290;6.144;2022-10-16T06:34:47;2.72;;;1.52;;
47431;SDS011;33183;52.290;6.144;2022-10-16T06:37:13;2.10;;;1.30;;
47431;SDS011;33183;52.290;6.144;2022-10-16T06:39:38;1.80;;;1.35;;
47431;SDS011;33183;52.290;6.144;2022-10-16T06:42:03;2.47;;;1.40;;
47431;SDS011;33183;52.290;6.144;2022-10-16T06:44:29;2.85;;;1.50;;
47431;SDS011;33183;52.290;6.144;2022-10-16T06:46:54;2.70;;;1.60;;
47431;SDS011;33183;52.290;6.144;2022-10-16T06:49:19;1.88;;;1.40;;
47431;SDS011;33183;52.290;6.144;2022-10-16T06:51:47;3.53;;;1.58;;
47431;SDS011;33183;52.290;6.144;2022-10-16T06:54:14;1.80;;;1.20;;
47431;SDS011;33183;52.290;6.144;2022-10-16T06:56:40;2.42;;;1.55;;
47431;SDS011;33183;52.290;6.144;2022-10-16T06:59:05;2.63;;;1.70;;
47431;SDS011;33183;52.290;6.144;2022-10-16T07:01:30;4.47;;;1.33;;
47431;SDS011;33183;52.290;6.144;2022-10-16T07:03:56;4.45;;;1.33;;
47431;SDS011;33183;52.290;6.144;2022-10-16T07:06:23;1.92;;;1.40;;
47431;SDS011;33183;52.290;6.144;2022-10-16T07:08:49;1.70;;;1.33;;
47431;SDS011;33183;52.290;6.144;2022-10-16T07:11:15;3.28;;;1.30;;
47431;SDS011;33183;52.290;6.144;2022-10-16T07:13:42;2.20;;;1.55;;
47431;SDS011;33183;52.290;6.144;2022-10-16T07:16:09;3.05;;;1.15;;
47431;SDS011;33183;52.290;6.144;2022-10-16T07:18:36;1.48;;;1.30;;
47431;SDS011;33183;52.290;6.144;2022-10-16T07:21:04;1.75;;;1.33;;
47431;SDS011;33183;52.290;6.144;2022-10-16T07:23:30;3.42;;;1.35;;
47431;SDS011;33183;52.290;6.144;2022-10-16T07:25:55;2.25;;;1.15;;
47431;SDS011;33183;52.290;6.144;2022-10-16T07:28:20;2.75;;;1.50;;
47431;SDS011;33183;52.290;6.144;2022-10-16T07:30:46;3.28;;;1.42;;
47431;SDS011;33183;52.290;6.144;2022-10-16T07:33:11;3.58;;;1.30;;
47431;SDS011;33183;52.290;6.144;2022-10-16T07:35:36;2.33;;;1.27;;
47431;SDS011;33183;52.290;6.144;2022-10-16T07:38:01;2.67;;;1.20;;
47431;SDS011;33183;52.290;6.144;2022-10-16T07:40:26;3.90;;;1.30;;
47431;SDS011;33183;52.290;6.144;2022-10-16T07:42:52;1.65;;;1.15;;
47431;SDS011;33183;52.290;6.144;2022-10-16T07:45:17;2.13;;;1.45;;
47431;SDS011;33183;52.290;6.144;2022-10-16T07:47:42;1.60;;;1.10;;
47431;SDS011;33183;52.290;6.144;2022-10-16T07:50:07;1.67;;;1.30;;
47431;SDS011;33183;52.290;6.144;2022-10-16T07:52:33;1.95;;;1.10;;
47431;SDS011;33183;52.290;6.144;2022-10-16T07:54:58;1.35;;;1.15;;
47431;SDS011;33183;52.290;6.144;2022-10-16T07:57:23;2.05;;;1.20;;
47431;SDS011;33183;52.290;6.144;2022-10-16T07:59:49;3.15;;;1.20;;
47431;SDS011;33183;52.290;6.144;2022-10-16T08:02:14;4.05;;;1.50;;
47431;SDS011;33183;52.290;6.144;2022-10-16T08:04:39;1.83;;;1.33;;
47431;SDS011;33183;52.290;6.144;2022-10-16T08:07:06;1.35;;;1.25;;
47431;SDS011;33183;52.290;6.144;2022-10-16T08:09:32;2.20;;;1.20;;
47431;SDS011;33183;52.290;6.144;2022-10-16T08:11:57;1.42;;;1.10;;
47431;SDS011;33183;52.290;6.144;2022-10-16T08:14:23;2.80;;;1.42;;
47431;SDS011;33183;52.290;6.144;2022-10-16T08:16:48;1.92;;;1.40;;
47431;SDS011;33183;52.290;6.144;2022-10-16T08:19:13;3.28;;;1.05;;
47431;SDS011;33183;52.290;6.144;2022-10-16T08:21:40;3.85;;;1.50;;
47431;SDS011;33183;52.290;6.144;2022-10-16T08:24:05;3.42;;;1.30;;
47431;SDS011;33183;52.290;6.144;2022-10-16T08:26:31;1.70;;;1.23;;
47431;SDS011;33183;52.290;6.144;2022-10-16T08:28:56;4.00;;;1.38;;
47431;SDS011;33183;52.290;6.144;2022-10-16T08:31:21;3.42;;;1.33;;
47431;SDS011;33183;52.290;6.144;2022-10-16T08:33:47;3.33;;;1.25;;
47431;SDS011;33183;52.290;6.144;2022-10-16T08:36:13;5.63;;;1.65;;
47431;SDS011;33183;52.290;6.144;2022-10-16T08:38:38;6.95;;;1.50;;
47431;SDS011;33183;52.290;6.144;2022-10-16T08:49:17;5.60;;;1.85;;
47431;SDS011;33183;52.290;6.144;2022-10-16T08:51:42;4.07;;;1.30;;
47431;SDS011;33183;52.290;6.144;2022-10-16T08:56:55;2.72;;;1.33;;
47431;SDS011;33183;52.290;6.144;2022-10-16T08:59:21;5.38;;;1.48;;
47431;SDS011;33183;52.290;6.144;2022-10-16T09:01:47;6.07;;;1.65;;
47431;SDS011;33183;52.290;6.144;2022-10-16T09:06:54;5.43;;;1.50;;
47431;SDS011;33183;52.290;6.144;2022-10-16T09:15:10;7.60;;;1.33;;
47431;SDS011;33183;52.290;6.144;2022-10-16T09:17:43;4.43;;;1.63;;
47431;SDS011;33183;52.290;6.144;2022-10-16T09:20:24;6.70;;;1.30;;
47431;SDS011;33183;52.290;6.144;2022-10-16T09:22:55;2.85;;;1.38;;
47431;SDS011;33183;52.290;6.144;2022-10-16T09:25:33;5.65;;;2.33;;
47431;SDS011;33183;52.290;6.144;2022-10-16T09:27:59;7.35;;;1.65;;
47431;SDS011;33183;52.290;6.144;2022-10-16T09:30:26;4.68;;;1.73;;
47431;SDS011;33183;52.290;6.144;2022-10-16T09:32:53;3.47;;;1.30;;
47431;SDS011;33183;52.290;6.144;2022-10-16T09:35:20;4.82;;;2.10;;
47431;SDS011;33183;52.290;6.144;2022-10-16T09:37:56;6.43;;;1.45;;
47431;SDS011;33183;52.290;6.144;2022-10-16T09:40:29;2.75;;;1.27;;
47431;SDS011;33183;52.290;6.144;2022-10-16T09:45:30;5.43;;;1.40;;
47431;SDS011;33183;52.290;6.144;2022-10-16T09:47:56;4.78;;;1.65;;
47431;SDS011;33183;52.290;6.144;2022-10-16T09:50:23;3.03;;;1.75;;
47431;SDS011;33183;52.290;6.144;2022-10-16T09:52:51;2.88;;;1.30;;
47431;SDS011;33183;52.290;6.144;2022-10-16T09:55:17;5.43;;;1.30;;
47431;SDS011;33183;52.290;6.144;2022-10-16T09:57:49;4.55;;;1.27;;
47431;SDS011;33183;52.290;6.144;2022-10-16T10:00:16;3.40;;;1.30;;
47431;SDS011;33183;52.290;6.144;2022-10-16T10:02:42;1.70;;;1.17;;
47431;SDS011;33183;52.290;6.144;2022-10-16T10:05:28;2.67;;;1.10;;
47431;SDS011;33183;52.290;6.144;2022-10-16T10:07:54;2.90;;;1.50;;
47431;SDS011;33183;52.290;6.144;2022-10-16T10:10:22;2.20;;;1.20;;
47431;SDS011;33183;52.290;6.144;2022-10-16T10:12:52;3.03;;;1.30;;
47431;SDS011;33183;52.290;6.144;2022-10-16T10:15:18;4.40;;;1.35;;
47431;SDS011;33183;52.290;6.144;2022-10-16T10:17:55;2.55;;;1.35;;
47431;SDS011;33183;52.290;6.144;2022-10-16T10:22:55;2.33;;;1.20;;
47431;SDS011;33183;52.290;6.144;2022-10-16T10:25:26;3.15;;;1.30;;
47431;SDS011;33183;52.290;6.144;2022-10-16T10:28:14;2.63;;;1.00;;
47431;SDS011;33183;52.290;6.144;2022-10-16T10:33:43;7.63;;;2.78;;
47431;SDS011;33183;52.290;6.144;2022-10-16T10:38:59;2.72;;;1.15;;
47431;SDS011;33183;52.290;6.144;2022-10-16T10:46:42;2.00;;;1.10;;
47431;SDS011;33183;52.290;6.144;2022-10-16T11:06:44;4.43;;;1.25;;
47431;SDS011;33183;52.290;6.144;2022-10-16T11:11:49;2.20;;;1.13;;
47431;SDS011;33183;52.290;6.144;2022-10-16T11:14:22;2.88;;;1.10;;
47431;SDS011;33183;52.290;6.144;2022-10-16T11:19:25;2.95;;;1.15;;
47431;SDS011;33183;52.290;6.144;2022-10-16T11:24:42;2.30;;;1.52;;
47431;SDS011;33183;52.290;6.144;2022-10-16T11:27:35;5.03;;;1.38;;
47431;SDS011;33183;52.290;6.144;2022-10-16T11:30:13;4.35;;;1.27;;
47431;SDS011;33183;52.290;6.144;2022-10-16T11:32:46;4.57;;;1.23;;
47431;SDS011;33183;52.290;6.144;2022-10-16T11:35:24;1.90;;;1.10;;
47431;SDS011;33183;52.290;6.144;2022-10-16T11:37:59;3.55;;;1.20;;
47431;SDS011;33183;52.290;6.144;2022-10-16T11:40:29;3.05;;;1.45;;
47431;SDS011;33183;52.290;6.144;2022-10-16T11:43:01;2.75;;;1.10;;
47431;SDS011;33183;52.290;6.144;2022-10-16T11:48:07;3.70;;;1.48;;
47431;SDS011;33183;52.290;6.144;2022-10-16T11:55:45;2.17;;;1.13;;
47431;SDS011;33183;52.290;6.144;2022-10-16T12:00:59;3.35;;;1.13;;
47431;SDS011;33183;52.290;6.144;2022-10-16T12:03:35;2.67;;;1.50;;
47431;SDS011;33183;52.290;6.144;2022-10-16T12:08:49;2.60;;;0.93;;
47431;SDS011;33183;52.290;6.144;2022-10-16T12:14:03;2.17;;;1.00;;
47431;SDS011;33183;52.290;6.144;2022-10-16T12:16:38;4.07;;;1.40;;
47431;SDS011;33183;52.290;6.144;2022-10-16T12:19:11;3.08;;;1.20;;
47431;SDS011;33183;52.290;6.144;2022-10-16T12:21:38;2.72;;;1.10;;
47431;SDS011;33183;52.290;6.144;2022-10-16T12:24:04;3.17;;;1.27;;
47431;SDS011;33183;52.290;6.144;2022-10-16T12:26:33;4.32;;;1.40;;
47431;SDS011;33183;52.290;6.144;2022-10-16T12:29:44;2.83;;;1.70;;
47431;SDS011;33183;52.290;6.144;2022-10-16T12:31:58;3.25;;;1.10;;
47431;SDS011;33183;52.290;6.144;2022-10-16T12:37:14;2.65;;;1.20;;
47431;SDS011;33183;52.290;6.144;2022-10-16T12:39:45;2.88;;;1.40;;
47431;SDS011;33183;52.290;6.144;2022-10-16T12:42:45;3.40;;;2.33;;
47431;SDS011;33183;52.290;6.144;2022-10-16T12:45:21;2.58;;;1.15;;
47431;SDS011;33183;52.290;6.144;2022-10-16T12:47:50;1.80;;;0.95;;
47431;SDS011;33183;52.290;6.144;2022-10-16T12:50:30;2.25;;;1.00;;
47431;SDS011;33183;52.290;6.144;2022-10-16T12:52:58;2.72;;;1.48;;
47431;SDS011;33183;52.290;6.144;2022-10-16T12:55:24;2.92;;;1.05;;
47431;SDS011;33183;52.290;6.144;2022-10-16T13:00:58;3.10;;;1.08;;
47431;SDS011;33183;52.290;6.144;2022-10-16T13:06:30;4.55;;;1.10;;
47431;SDS011;33183;52.290;6.144;2022-10-16T13:11:45;2.63;;;1.17;;
47431;SDS011;33183;52.290;6.144;2022-10-16T13:14:42;1.88;;;1.05;;
47431;SDS011;33183;52.290;6.144;2022-10-16T13:20:21;1.70;;;0.90;;
47431;SDS011;33183;52.290;6.144;2022-10-16T13:22:54;2.42;;;1.25;;
47431;SDS011;33183;52.290;6.144;2022-10-16T13:28:06;2.83;;;1.17;;
47431;SDS011;33183;52.290;6.144;2022-10-16T13:33:18;5.07;;;1.42;;
47431;SDS011;33183;52.290;6.144;2022-10-16T13:35:47;2.72;;;1.10;;
47431;SDS011;33183;52.290;6.144;2022-10-16T13:38:15;1.45;;;0.88;;
47431;SDS011;33183;52.290;6.144;2022-10-16T13:43:18;3.95;;;1.00;;
47431;SDS011;33183;52.290;6.144;2022-10-16T13:45:57;2.33;;;1.20;;
47431;SDS011;33183;52.290;6.144;2022-10-16T13:48:30;2.13;;;0.90;;
47431;SDS011;33183;52.290;6.144;2022-10-16T13:50:59;2.83;;;1.30;;
47431;SDS011;33183;52.290;6.144;2022-10-16T13:53:26;1.98;;;1.08;;
47431;SDS011;33183;52.290;6.144;2022-10-16T13:55:51;3.38;;;1.25;;
47431;SDS011;33183;52.290;6.144;2022-10-16T13:58:17;1.70;;;0.90;;
47431;SDS011;33183;52.290;6.144;2022-10-16T14:00:55;3.70;;;1.20;;
47431;SDS011;33183;52.290;6.144;2022-10-16T14:03:30;2.03;;;0.90;;
47431;SDS011;33183;52.290;6.144;2022-10-16T14:05:57;2.33;;;1.10;;
47431;SDS011;33183;52.290;6.144;2022-10-16T14:08:24;1.73;;;0.80;;
47431;SDS011;33183;52.290;6.144;2022-10-16T14:10:51;1.63;;;0.70;;
47431;SDS011;33183;52.290;6.144;2022-10-16T14:13:19;1.77;;;1.08;;
47431;SDS011;33183;52.290;6.144;2022-10-16T14:15:47;1.83;;;0.95;;
47431;SDS011;33183;52.290;6.144;2022-10-16T14:18:21;2.28;;;0.90;;
47431;SDS011;33183;52.290;6.144;2022-10-16T14:20:48;2.65;;;1.30;;
47431;SDS011;33183;52.290;6.144;2022-10-16T14:23:22;3.90;;;0.93;;
47431;SDS011;33183;52.290;6.144;2022-10-16T14:26:05;2.10;;;1.00;;
47431;SDS011;33183;52.290;6.144;2022-10-16T14:28:31;2.20;;;1.10;;
47431;SDS011;33183;52.290;6.144;2022-10-16T14:30:58;2.85;;;1.45;;
47431;SDS011;33183;52.290;6.144;2022-10-16T14:36:02;2.28;;;0.85;;
47431;SDS011;33183;52.290;6.144;2022-10-16T14:38:28;2.40;;;1.00;;
47431;SDS011;33183;52.290;6.144;2022-10-16T14:40:54;3.20;;;0.98;;
47431;SDS011;33183;52.290;6.144;2022-10-16T14:43:22;4.33;;;1.10;;
47431;SDS011;33183;52.290;6.144;2022-10-16T14:46:18;3.22;;;1.10;;
47431;SDS011;33183;52.290;6.144;2022-10-16T14:48:46;2.78;;;1.45;;
47431;SDS011;33183;52.290;6.144;2022-10-16T14:51:16;1.20;;;1.08;;
47431;SDS011;33183;52.290;6.144;2022-10-16T14:53:43;1.90;;;1.05;;
47431;SDS011;33183;52.290;6.144;2022-10-16T14:56:12;2.47;;;1.20;;
47431;SDS011;33183;52.290;6.144;2022-10-16T14:58:41;1.38;;;0.90;;
47431;SDS011;33183;52.290;6.144;2022-10-16T15:01:07;3.33;;;1.33;;
47431;SDS011;33183;52.290;6.144;2022-10-16T15:06:00;4.07;;;1.15;;
47431;SDS011;33183;52.290;6.144;2022-10-16T15:08:26;2.25;;;1.02;;
47431;SDS011;33183;52.290;6.144;2022-10-16T15:10:51;1.10;;;1.00;;
47431;SDS011;33183;52.290;6.144;2022-10-16T15:13:16;1.90;;;0.98;;
47431;SDS011;33183;52.290;6.144;2022-10-16T15:15:45;2.95;;;1.45;;
47431;SDS011;33183;52.290;6.144;2022-10-16T15:18:11;1.80;;;1.00;;
47431;SDS011;33183;52.290;6.144;2022-10-16T15:20:39;1.83;;;0.80;;
47431;SDS011;33183;52.290;6.144;2022-10-16T15:23:06;2.05;;;0.80;;
47431;SDS011;33183;52.290;6.144;2022-10-16T15:25:41;1.42;;;1.10;;
47431;SDS011;33183;52.290;6.144;2022-10-16T15:28:11;2.17;;;0.90;;
47431;SDS011;33183;52.290;6.144;2022-10-16T15:30:37;1.92;;;1.10;;
47431;SDS011;33183;52.290;6.144;2022-10-16T15:33:03;1.30;;;0.80;;
47431;SDS011;33183;52.290;6.144;2022-10-16T15:35:30;1.63;;;0.80;;
47431;SDS011;33183;52.290;6.144;2022-10-16T15:37:55;1.27;;;1.00;;
47431;SDS011;33183;52.290;6.144;2022-10-16T15:40:21;1.23;;;0.70;;
47431;SDS011;33183;52.290;6.144;2022-10-16T15:42:47;2.38;;;0.90;;
47431;SDS011;33183;52.290;6.144;2022-10-16T15:45:13;2.13;;;0.70;;
47431;SDS011;33183;52.290;6.144;2022-10-16T15:47:39;2.13;;;0.88;;
47431;SDS011;33183;52.290;6.144;2022-10-16T15:50:05;2.10;;;1.00;;
47431;SDS011;33183;52.290;6.144;2022-10-16T15:52:31;1.50;;;0.80;;
47431;SDS011;33183;52.290;6.144;2022-10-16T15:54:57;1.20;;;0.70;;
47431;SDS011;33183;52.290;6.144;2022-10-16T15:57:22;1.33;;;0.82;;
47431;SDS011;33183;52.290;6.144;2022-10-16T15:59:48;1.67;;;0.88;;
47431;SDS011;33183;52.290;6.144;2022-10-16T16:02:14;1.63;;;1.00;;
47431;SDS011;33183;52.290;6.144;2022-10-16T16:04:39;2.22;;;0.93;;
47431;SDS011;33183;52.290;6.144;2022-10-16T16:07:04;1.35;;;0.80;;
47431;SDS011;33183;52.290;6.144;2022-10-16T16:09:32;1.95;;;0.80;;
47431;SDS011;33183;52.290;6.144;2022-10-16T16:11:57;1.77;;;0.70;;
47431;SDS011;33183;52.290;6.144;2022-10-16T16:14:25;1.48;;;0.70;;
47431;SDS011;33183;52.290;6.144;2022-10-16T16:16:52;2.65;;;1.30;;
47431;SDS011;33183;52.290;6.144;2022-10-16T16:19:18;2.05;;;0.88;;
47431;SDS011;33183;52.290;6.144;2022-10-16T16:21:45;2.47;;;0.98;;
47431;SDS011;33183;52.290;6.144;2022-10-16T16:24:11;1.77;;;0.95;;
47431;SDS011;33183;52.290;6.144;2022-10-16T16:26:36;1.42;;;0.82;;
47431;SDS011;33183;52.290;6.144;2022-10-16T16:29:04;3.20;;;1.02;;
47431;SDS011;33183;52.290;6.144;2022-10-16T16:31:30;2.45;;;0.70;;
47431;SDS011;33183;52.290;6.144;2022-10-16T16:33:56;2.40;;;0.73;;
47431;SDS011;33183;52.290;6.144;2022-10-16T16:36:22;0.88;;;0.68;;
47431;SDS011;33183;52.290;6.144;2022-10-16T16:38:48;1.50;;;0.85;;
47431;SDS011;33183;52.290;6.144;2022-10-16T16:41:14;1.95;;;0.80;;
47431;SDS011;33183;52.290;6.144;2022-10-16T16:43:41;2.28;;;0.90;;
47431;SDS011;33183;52.290;6.144;2022-10-16T16:46:07;1.95;;;0.80;;
47431;SDS011;33183;52.290;6.144;2022-10-16T16:48:33;2.28;;;1.45;;
47431;SDS011;33183;52.290;6.144;2022-10-16T16:51:05;2.22;;;0.85;;
47431;SDS011;33183;52.290;6.144;2022-10-16T16:53:35;1.58;;;1.15;;
47431;SDS011;33183;52.290;6.144;2022-10-16T16:56:01;2.22;;;1.45;;
47431;SDS011;33183;52.290;6.144;2022-10-16T16:58:27;2.72;;;0.80;;